Country
Station

 

Weather  for  Jonkoping Flygplats  -  Sweden    Sweden

  
18 °C (64 °F)
    
 
 

Current METAR for Jonkoping Flygplats is :

ESGJ 201950Z 25007KT 9999 FEW027 18/13 Q1008

 

This is a report for Jonkoping Flygplats - Sweden.
 
The report was made 36 minutes ago, at 19:50 UTC .
The wind was blowing at a speed of 3.6 meters per second (8.1 miles per hour) from west/southwest (250°).
 
The temperature was 18 °C (64 °F), with a dew-point at 13 °C (55 °F).
The atmospheric pressure was 1008 hPa (29.77 inHg).
The relative humidity was 72.6%.
 
There were a few clouds at a height of 823 meters (2700 feet).
 
The overall visibility was greater than 10 kilometers (6.2 miles).
 

 
 
 
 

Country :   A   B   C   D   E   F   G   H   I   J   K   L   M   N   O   P   Q   R   S   T   U   V   W   Y   Z

 

Site Info  |  Disclaimer  |  Credits  |  Privacy
Contact us  |  Add to favorites
© 2013-2019 METARs - All rights reserved